createdAt,value
2023-02-23T00:02:14.064Z,28.27
2023-02-23T00:04:49.008Z,28.52
2023-02-23T00:07:19.346Z,36.83
2023-02-23T00:09:54.075Z,40.28
2023-02-23T00:12:28.041Z,38.95
2023-02-23T00:15:01.027Z,39.13
2023-02-23T00:17:27.908Z,38.58
2023-02-23T00:19:55.296Z,34.80
2023-02-23T00:22:29.064Z,36.47
2023-02-23T00:24:57.487Z,34.63
2023-02-23T00:27:31.021Z,31.73
2023-02-23T00:30:04.076Z,36.00
2023-02-23T00:32:31.046Z,37.65
2023-02-23T00:35:05.090Z,39.35
2023-02-23T00:37:38.055Z,38.78
2023-02-23T00:40:13.798Z,39.28
2023-02-23T00:42:48.069Z,38.95
2023-02-23T00:45:22.063Z,39.15
2023-02-23T00:47:58.106Z,37.08
2023-02-23T00:50:24.927Z,35.97
2023-02-23T00:52:58.110Z,30.92
2023-02-23T00:55:25.179Z,29.85
2023-02-23T00:57:58.109Z,28.67
2023-02-23T01:00:28.348Z,29.48
2023-02-23T01:03:08.094Z,27.88
2023-02-23T01:05:35.383Z,34.28
2023-02-23T01:08:09.112Z,35.33
2023-02-23T01:10:50.123Z,35.05
2023-02-23T01:13:18.053Z,34.42
2023-02-23T01:15:51.150Z,33.55
2023-02-23T01:18:20.173Z,37.65
2023-02-23T01:20:54.160Z,37.05
2023-02-23T01:23:21.865Z,33.80
2023-02-23T01:25:56.139Z,35.53
2023-02-23T01:28:31.149Z,31.50
2023-02-23T01:30:57.956Z,33.65
2023-02-23T01:33:31.146Z,32.70
2023-02-23T01:35:59.380Z,30.73
2023-02-23T01:38:33.163Z,39.85
2023-02-23T01:41:06.152Z,36.80
2023-02-23T01:43:33.268Z,36.38
2023-02-23T01:46:06.192Z,37.75
2023-02-23T01:48:44.164Z,40.20
2023-02-23T01:51:18.275Z,41.15
2023-02-23T01:54:01.199Z,39.45
2023-02-23T01:56:32.925Z,37.67
2023-02-23T01:59:12.218Z,36.53
2023-02-23T02:01:43.047Z,40.58
2023-02-23T02:04:23.180Z,41.28
2023-02-23T02:06:53.643Z,40.15
2023-02-23T02:09:34.218Z,34.92
2023-02-23T02:12:02.580Z,33.97
2023-02-23T02:14:38.241Z,32.95
2023-02-23T02:17:35.576Z,32.03
2023-02-23T02:20:50.234Z,29.08
2023-02-23T02:23:40.373Z,33.15
2023-02-23T02:26:42.261Z,34.97
2023-02-23T02:29:46.276Z,32.05
2023-02-23T02:32:46.231Z,31.10
2023-02-23T02:35:47.245Z,37.35
2023-02-23T02:38:35.497Z,36.13
2023-02-23T02:41:18.532Z,36.83
2023-02-23T02:44:04.579Z,35.38
2023-02-23T02:46:45.303Z,33.15
2023-02-23T02:49:28.088Z,30.60
2023-02-23T02:54:40.635Z,32.42
2023-02-23T02:57:16.289Z,31.85
2023-02-23T03:00:13.281Z,27.90
2023-02-23T03:03:06.321Z,26.60
2023-02-23T03:06:03.945Z,27.38
2023-02-23T03:09:19.327Z,25.10
2023-02-23T03:12:47.315Z,24.92
2023-02-23T03:16:03.543Z,29.20
2023-02-23T03:19:04.623Z,30.20
2023-02-23T03:22:16.189Z,27.05
2023-02-23T03:25:17.383Z,26.35
2023-02-23T03:28:09.946Z,30.70
2023-02-23T03:31:22.479Z,30.10
2023-02-23T03:34:26.316Z,29.02
2023-02-23T03:37:50.385Z,26.15
2023-02-23T03:40:45.382Z,28.27
2023-02-23T03:43:43.382Z,26.02
2023-02-23T03:46:31.424Z,28.02
2023-02-23T03:49:27.363Z,30.80
2023-02-23T03:52:17.617Z,30.50
2023-02-23T03:55:16.372Z,29.95
2023-02-23T03:58:04.500Z,30.27
2023-02-23T04:01:03.531Z,30.63
2023-02-23T04:03:53.234Z,32.50
2023-02-23T04:06:48.397Z,37.70
2023-02-23T04:09:34.249Z,42.38
2023-02-23T04:12:39.688Z,40.58
2023-02-23T04:15:21.340Z,39.05
2023-02-23T04:17:54.420Z,36.17
2023-02-23T04:20:21.851Z,37.63
2023-02-23T04:22:55.432Z,34.83
2023-02-23T04:25:22.932Z,33.28
2023-02-23T04:27:50.869Z,41.33
2023-02-23T04:30:25.661Z,39.60
2023-02-23T04:33:00.443Z,35.38
2023-02-23T04:35:29.892Z,39.15
2023-02-23T04:38:03.461Z,41.22
2023-02-23T04:40:30.742Z,39.45
2023-02-23T04:43:11.727Z,44.78
2023-02-23T04:45:38.672Z,42.53
2023-02-23T04:48:06.201Z,43.95
2023-02-23T04:50:40.602Z,37.40
2023-02-23T04:53:08.163Z,39.45
2023-02-23T04:55:35.074Z,37.85
2023-02-23T04:58:09.476Z,37.30
2023-02-23T05:00:45.508Z,33.35
2023-02-23T05:03:17.632Z,31.92
2023-02-23T05:05:51.484Z,30.30
2023-02-23T05:08:18.245Z,32.08
2023-02-23T05:10:52.519Z,35.65
2023-02-23T05:13:20.596Z,30.88
2023-02-23T05:15:54.489Z,31.40
2023-02-23T05:18:21.249Z,31.33
2023-02-23T05:20:54.528Z,32.78
2023-02-23T05:23:21.904Z,31.55
2023-02-23T05:25:55.536Z,35.38
2023-02-23T05:28:22.941Z,35.30
2023-02-23T05:30:56.650Z,30.85
2023-02-23T05:33:23.474Z,32.17
2023-02-23T05:35:56.516Z,32.25
2023-02-23T05:38:29.545Z,31.33
2023-02-23T05:41:03.542Z,32.38
2023-02-23T05:43:30.343Z,38.83
2023-02-23T05:46:03.593Z,40.03
2023-02-23T05:48:36.566Z,38.70
2023-02-23T05:51:11.555Z,39.10
2023-02-23T05:53:45.584Z,38.13
2023-02-23T05:56:28.582Z,36.75
2023-02-23T05:59:06.572Z,31.83
2023-02-23T06:01:40.651Z,33.78
2023-02-23T06:04:07.657Z,31.73
2023-02-23T06:06:41.628Z,32.72
2023-02-23T06:09:08.512Z,30.65
2023-02-23T06:11:41.575Z,31.30
2023-02-23T06:14:08.653Z,27.80
2023-02-23T06:16:35.519Z,26.88
2023-02-23T06:19:08.632Z,25.20
2023-02-23T06:21:42.617Z,23.60
2023-02-23T06:24:09.597Z,27.15
2023-02-23T06:26:44.574Z,23.02
2023-02-23T06:29:18.657Z,22.83
2023-02-23T06:31:45.704Z,23.17
2023-02-23T06:34:18.594Z,24.35
2023-02-23T06:36:45.706Z,30.35
2023-02-23T06:39:19.714Z,33.55
2023-02-23T06:41:46.636Z,36.35
2023-02-23T06:44:19.660Z,33.58
2023-02-23T06:46:47.756Z,30.80
2023-02-23T06:49:21.625Z,28.77
2023-02-23T06:51:48.395Z,29.27
2023-02-23T06:54:16.180Z,25.67
2023-02-23T06:56:49.665Z,27.90
2023-02-23T06:59:22.696Z,28.02
2023-02-23T07:01:49.724Z,28.58
2023-02-23T07:04:23.688Z,27.48
2023-02-23T07:06:59.658Z,29.23
2023-02-23T07:09:26.670Z,31.92
2023-02-23T07:11:59.672Z,34.13
2023-02-23T07:14:27.326Z,40.13
2023-02-23T07:17:03.651Z,37.47
2023-02-23T07:19:31.182Z,35.25
2023-02-23T07:22:07.733Z,32.00
2023-02-23T07:24:34.553Z,33.25
2023-02-23T07:27:09.847Z,34.47
2023-02-23T07:29:36.729Z,37.40
2023-02-23T07:32:13.773Z,39.22
2023-02-23T07:34:40.722Z,44.22
2023-02-23T07:37:13.704Z,40.20
2023-02-23T07:39:40.474Z,38.40
2023-02-23T07:42:14.753Z,35.85
2023-02-23T07:44:47.665Z,37.92
2023-02-23T07:47:20.724Z,37.78
2023-02-23T07:49:47.533Z,37.13
2023-02-23T07:52:25.748Z,39.85
2023-02-23T07:54:52.893Z,38.83
2023-02-23T07:57:30.813Z,35.92
2023-02-23T07:59:57.790Z,36.55
2023-02-23T08:02:30.791Z,33.90
2023-02-23T08:05:03.928Z,34.97
2023-02-23T08:07:41.807Z,32.90
2023-02-23T08:10:15.847Z,27.73
2023-02-23T08:12:43.498Z,29.17
2023-02-23T08:15:17.770Z,33.30
2023-02-23T08:17:44.682Z,39.80
2023-02-23T08:20:17.770Z,35.58
2023-02-23T08:22:49.760Z,35.72
2023-02-23T08:25:24.963Z,36.00
2023-02-23T08:27:58.817Z,34.10
2023-02-23T08:30:25.752Z,35.92
2023-02-23T08:32:58.841Z,37.05
2023-02-23T08:35:32.805Z,37.85
2023-02-23T08:38:06.835Z,34.83
2023-02-23T08:40:39.791Z,33.75
2023-02-23T08:43:06.700Z,37.15
2023-02-23T08:45:39.831Z,38.03
2023-02-23T08:48:09.007Z,40.33
2023-02-23T08:50:42.826Z,38.55
2023-02-23T08:53:16.881Z,35.95
2023-02-23T08:55:43.814Z,34.17
2023-02-23T08:58:17.856Z,32.33
2023-02-23T09:00:45.195Z,35.42
2023-02-23T09:03:18.886Z,34.85
2023-02-23T09:05:52.900Z,35.58
2023-02-23T09:08:20.418Z,34.45
2023-02-23T09:10:59.905Z,32.20
2023-02-23T09:13:26.939Z,32.83
2023-02-23T09:16:00.957Z,33.05
2023-02-23T09:18:29.515Z,30.10
2023-02-23T09:21:02.892Z,29.35
2023-02-23T09:23:29.718Z,29.25
2023-02-23T09:26:02.858Z,31.08
2023-02-23T09:28:36.903Z,30.08
2023-02-23T09:31:15.029Z,30.83
2023-02-23T09:33:41.916Z,26.50
2023-02-23T09:36:25.039Z,30.42
2023-02-23T09:39:03.997Z,29.05
2023-02-23T09:42:00.946Z,29.23
2023-02-23T09:44:39.933Z,31.63
2023-02-23T09:47:24.976Z,29.08
2023-02-23T09:49:59.972Z,30.27
2023-02-23T09:52:39.912Z,31.92
2023-02-23T09:55:15.966Z,29.73
2023-02-23T09:58:02.982Z,29.70
2023-02-23T10:00:40.961Z,28.67
2023-02-23T10:03:24.509Z,28.33
2023-02-23T10:06:06.019Z,26.73
2023-02-23T10:09:04.988Z,26.58
2023-02-23T10:11:49.857Z,27.05
2023-02-23T10:14:26.023Z,27.45
2023-02-23T10:16:55.648Z,27.10
2023-02-23T10:19:38.967Z,25.73
2023-02-23T10:22:12.411Z,24.98
2023-02-23T10:24:47.975Z,23.88
2023-02-23T10:27:25.047Z,23.23
2023-02-23T10:30:00.985Z,25.33
2023-02-23T10:32:51.022Z,23.90
2023-02-23T10:35:28.026Z,24.35
2023-02-23T10:37:57.523Z,23.05
2023-02-23T10:40:35.074Z,23.42
2023-02-23T10:43:05.390Z,23.30
2023-02-23T10:45:54.032Z,22.77
2023-02-23T10:48:24.607Z,21.98
2023-02-23T10:51:02.031Z,20.63
2023-02-23T10:53:35.752Z,20.30
2023-02-23T10:56:17.180Z,19.30
2023-02-23T10:59:14.007Z,17.95
2023-02-23T11:02:00.994Z,16.55
2023-02-23T11:04:41.114Z,15.88
2023-02-23T11:07:22.045Z,14.93
2023-02-23T11:09:51.361Z,13.80
2023-02-23T11:12:28.398Z,13.70
2023-02-23T11:14:58.604Z,14.43
2023-02-23T11:17:37.123Z,15.07
2023-02-23T11:20:22.886Z,15.40
2023-02-23T11:23:09.530Z,15.70
2023-02-23T11:25:51.151Z,15.13
2023-02-23T11:28:37.109Z,14.63
2023-02-23T11:31:20.636Z,13.73
2023-02-23T11:34:02.139Z,13.98
2023-02-23T11:36:31.703Z,14.07
2023-02-23T11:39:24.136Z,13.50
2023-02-23T11:42:19.095Z,15.00
2023-02-23T11:45:04.908Z,14.95
2023-02-23T11:47:49.460Z,14.70
2023-02-23T11:50:27.119Z,14.43
2023-02-23T11:53:09.198Z,15.38
2023-02-23T11:55:37.605Z,15.77
2023-02-23T11:58:35.133Z,14.70
2023-02-23T12:01:18.227Z,15.30
2023-02-23T12:03:47.756Z,15.13
2023-02-23T12:06:43.224Z,14.68
2023-02-23T12:09:36.161Z,15.57
2023-02-23T12:12:09.800Z,16.17
2023-02-23T12:14:49.145Z,15.43
2023-02-23T12:17:32.211Z,15.35
2023-02-23T12:20:18.193Z,14.20
2023-02-23T12:23:10.229Z,13.85
2023-02-23T12:25:50.474Z,15.20
2023-02-23T12:28:34.201Z,14.52
2023-02-23T12:31:35.301Z,12.75
2023-02-23T12:34:11.474Z,12.40
2023-02-23T12:37:02.235Z,11.80
2023-02-23T12:39:44.223Z,10.48
2023-02-23T12:42:50.153Z,10.57
2023-02-23T12:45:48.291Z,9.90
2023-02-23T12:48:49.225Z,10.98
2023-02-23T12:51:47.243Z,9.75
2023-02-23T12:54:16.579Z,10.75
2023-02-23T12:56:56.261Z,10.00
2023-02-23T12:59:41.060Z,8.50
2023-02-23T13:02:36.297Z,9.02
2023-02-23T13:05:33.353Z,9.27
2023-02-23T13:08:27.088Z,10.10
2023-02-23T13:11:04.318Z,9.57
2023-02-23T13:13:37.261Z,10.57
2023-02-23T13:16:29.288Z,11.63
2023-02-23T13:19:22.296Z,11.13
2023-02-23T13:22:26.190Z,12.65
2023-02-23T13:25:05.406Z,12.88
2023-02-23T13:27:41.948Z,12.85
2023-02-23T13:30:19.297Z,13.23
2023-02-23T13:32:46.690Z,12.48
2023-02-23T13:35:28.416Z,13.73
2023-02-23T13:38:40.353Z,11.75
2023-02-23T13:41:34.322Z,12.10
2023-02-23T13:44:20.415Z,11.30
2023-02-23T13:47:05.300Z,10.55
2023-02-23T13:50:32.377Z,11.82
2023-02-23T13:53:05.410Z,10.82
2023-02-23T13:55:49.208Z,13.05
2023-02-23T13:58:27.361Z,12.02
2023-02-23T14:01:13.393Z,12.45
2023-02-23T14:03:52.981Z,13.88
2023-02-23T14:06:29.499Z,12.18
2023-02-23T14:09:09.795Z,11.25
2023-02-23T14:11:57.434Z,10.77
2023-02-23T14:14:33.315Z,11.88
2023-02-23T14:17:24.369Z,12.25
2023-02-23T14:20:30.439Z,14.60
2023-02-23T14:23:28.669Z,14.82
2023-02-23T14:26:15.739Z,15.20
2023-02-23T14:28:51.469Z,14.27
2023-02-23T14:31:21.328Z,15.30
2023-02-23T14:33:56.500Z,14.27
2023-02-23T14:36:26.348Z,13.50
2023-02-23T14:38:56.322Z,13.98
2023-02-23T14:41:49.430Z,13.27
2023-02-23T14:44:31.876Z,11.10
2023-02-23T14:47:15.402Z,11.73
2023-02-23T14:49:52.408Z,11.95
2023-02-23T14:52:34.462Z,11.80
2023-02-23T14:55:35.398Z,9.73
2023-02-23T14:58:10.464Z,10.63
2023-02-23T15:00:42.758Z,9.82
2023-02-23T15:03:20.423Z,11.27
2023-02-23T15:06:07.479Z,13.98
2023-02-23T15:08:45.458Z,15.57
2023-02-23T15:11:14.426Z,16.13
2023-02-23T15:13:50.445Z,17.00
2023-02-23T15:16:26.519Z,17.02
2023-02-23T15:19:00.442Z,10.05
2023-02-23T15:21:27.619Z,6.65
2023-02-23T15:24:11.731Z,6.00
2023-02-23T15:26:40.925Z,5.65
2023-02-23T15:29:10.609Z,4.55
2023-02-23T15:31:47.687Z,4.03
2023-02-23T15:34:14.551Z,3.88
2023-02-23T15:36:41.691Z,4.25
2023-02-23T15:39:23.504Z,4.65
2023-02-23T15:41:50.469Z,4.55
2023-02-23T15:44:42.582Z,4.97
2023-02-23T15:47:20.495Z,5.10
2023-02-23T15:49:54.494Z,5.40
2023-02-23T15:52:24.926Z,4.78
2023-02-23T15:55:08.492Z,4.70
2023-02-23T15:57:44.762Z,5.57
2023-02-23T16:00:33.511Z,4.75
2023-02-23T16:03:03.222Z,4.22
2023-02-23T16:05:47.195Z,4.53
2023-02-23T16:08:22.795Z,4.15
2023-02-23T16:11:03.532Z,3.72
2023-02-23T16:13:30.658Z,3.22
2023-02-23T16:16:05.611Z,3.45
2023-02-23T16:18:39.859Z,3.53
2023-02-23T16:21:15.656Z,2.88
2023-02-23T16:23:45.601Z,3.22
2023-02-23T16:26:24.576Z,3.60
2023-02-23T16:28:59.695Z,5.40
2023-02-23T16:31:46.696Z,4.38
2023-02-23T16:34:35.712Z,8.75
2023-02-23T16:37:31.745Z,9.63
2023-02-23T16:40:00.142Z,8.20
2023-02-23T16:42:31.225Z,9.35
2023-02-23T16:45:06.580Z,7.38
2023-02-23T16:47:54.582Z,6.88
2023-02-23T16:50:24.356Z,6.20
2023-02-23T16:52:59.655Z,5.75
2023-02-23T16:55:28.341Z,6.70
2023-02-23T16:58:08.638Z,5.75
2023-02-23T17:00:35.821Z,7.35
2023-02-23T17:03:19.605Z,6.63
2023-02-23T17:05:47.187Z,5.95
2023-02-23T17:08:30.733Z,5.97
2023-02-23T17:10:58.284Z,5.93
2023-02-23T17:13:33.925Z,5.28
2023-02-23T17:16:04.366Z,5.22
2023-02-23T17:18:43.735Z,5.38
2023-02-23T17:21:13.357Z,5.10
2023-02-23T17:23:59.707Z,4.90
2023-02-23T17:26:26.861Z,5.43
2023-02-23T17:29:03.844Z,5.28
2023-02-23T17:31:31.957Z,5.00
2023-02-23T17:33:59.032Z,5.30
2023-02-23T17:36:33.662Z,7.38
2023-02-23T17:39:07.652Z,15.30
2023-02-23T17:41:34.424Z,6.25
2023-02-23T17:44:09.956Z,4.60
2023-02-23T17:46:37.091Z,4.07
2023-02-23T17:49:04.251Z,4.28
2023-02-23T17:51:37.701Z,4.13
2023-02-23T17:54:10.682Z,3.78
2023-02-23T17:56:44.787Z,4.03
2023-02-23T17:59:17.782Z,3.55
2023-02-23T18:01:51.772Z,4.07
2023-02-23T18:04:24.730Z,3.45
2023-02-23T18:06:51.686Z,3.60
2023-02-23T18:09:18.483Z,3.80
2023-02-23T18:11:52.881Z,3.70
2023-02-23T18:14:19.660Z,4.18
2023-02-23T18:16:46.557Z,4.82
2023-02-23T18:19:19.710Z,4.78
2023-02-23T18:21:52.731Z,6.18
2023-02-23T18:24:27.347Z,5.43
2023-02-23T18:27:08.729Z,4.83
2023-02-23T18:29:43.782Z,3.88
2023-02-23T18:32:17.907Z,4.00
2023-02-23T18:34:44.862Z,4.15
2023-02-23T18:37:31.774Z,4.75
2023-02-23T18:39:59.592Z,4.65
2023-02-23T18:42:32.789Z,7.53
2023-02-23T18:45:05.774Z,4.70
2023-02-23T18:47:32.596Z,4.03
2023-02-23T18:50:07.774Z,4.38
2023-02-23T18:52:42.777Z,4.05
2023-02-23T18:55:15.795Z,4.60
2023-02-23T18:57:51.852Z,3.85
2023-02-23T19:00:25.870Z,4.05
2023-02-23T19:03:00.818Z,4.18
2023-02-23T19:05:27.712Z,3.72
2023-02-23T19:08:19.913Z,4.43
2023-02-23T19:10:54.097Z,3.65
2023-02-23T19:13:28.954Z,3.22
2023-02-23T19:15:56.082Z,3.60
2023-02-23T19:18:23.296Z,3.05
2023-02-23T19:21:01.873Z,3.33
2023-02-23T19:23:28.933Z,3.17
2023-02-23T19:25:55.921Z,3.28
2023-02-23T19:28:36.906Z,2.70
2023-02-23T19:31:06.773Z,3.63
2023-02-23T19:33:40.880Z,3.65
2023-02-23T19:36:16.847Z,3.13
2023-02-23T19:38:43.719Z,3.85
2023-02-23T19:41:35.911Z,3.00
2023-02-23T19:44:03.111Z,3.42
2023-02-23T19:46:36.988Z,3.08
2023-02-23T19:49:04.497Z,3.85
2023-02-23T19:51:43.857Z,3.78
2023-02-23T19:54:11.607Z,3.15
2023-02-23T19:56:44.907Z,3.53
2023-02-23T19:59:12.200Z,3.50
2023-02-23T20:01:45.944Z,2.88
2023-02-23T20:04:13.080Z,2.80
2023-02-23T20:06:50.902Z,3.50
2023-02-23T20:09:17.763Z,2.97
2023-02-23T20:11:51.000Z,3.45
2023-02-23T20:14:23.924Z,3.70
2023-02-23T20:16:58.011Z,4.40
2023-02-23T20:19:31.947Z,3.58
2023-02-23T20:21:58.956Z,3.60
2023-02-23T20:24:31.956Z,3.60
2023-02-23T20:27:00.665Z,3.70
2023-02-23T20:29:34.925Z,4.85
2023-02-23T20:32:03.580Z,4.65
2023-02-23T20:34:42.977Z,4.30
2023-02-23T20:37:16.045Z,4.65
2023-02-23T20:39:49.977Z,4.45
2023-02-23T20:42:16.899Z,4.97
2023-02-23T20:44:49.936Z,4.00
2023-02-23T20:47:16.798Z,3.78
2023-02-23T20:49:43.703Z,3.60
2023-02-23T20:52:18.989Z,3.92
2023-02-23T20:54:51.993Z,3.90
2023-02-23T20:57:18.860Z,4.38
2023-02-23T20:59:52.006Z,5.38
2023-02-23T21:02:18.979Z,5.72
2023-02-23T21:04:52.033Z,4.40
2023-02-23T21:07:25.321Z,4.72
2023-02-23T21:10:06.041Z,7.30
2023-02-23T21:12:33.324Z,4.75
2023-02-23T21:15:01.895Z,5.35
2023-02-23T21:17:35.031Z,4.07
2023-02-23T21:20:09.038Z,5.10
2023-02-23T21:22:42.032Z,9.07
2023-02-23T21:25:17.032Z,6.10
2023-02-23T21:27:51.024Z,7.97
2023-02-23T21:30:28.019Z,8.70
2023-02-23T21:32:56.363Z,5.50
2023-02-23T21:35:23.641Z,5.78
2023-02-23T21:37:58.103Z,4.85
2023-02-23T21:40:25.084Z,5.35
2023-02-23T21:42:59.072Z,5.38
2023-02-23T21:45:26.514Z,4.60
2023-02-23T21:48:08.135Z,6.28
2023-02-23T21:50:34.962Z,7.88
2023-02-23T21:53:04.206Z,5.63
2023-02-23T21:55:38.067Z,5.82
2023-02-23T21:58:07.043Z,4.55
2023-02-23T22:00:42.034Z,4.38
2023-02-23T22:03:09.617Z,5.80
2023-02-23T22:05:43.084Z,4.93
2023-02-23T22:08:15.557Z,4.65
2023-02-23T22:10:49.119Z,4.35
2023-02-23T22:13:15.962Z,5.25
2023-02-23T22:15:49.123Z,4.30
2023-02-23T22:18:28.858Z,5.97
2023-02-23T22:21:04.133Z,4.18
2023-02-23T22:23:34.529Z,4.03
2023-02-23T22:26:09.286Z,4.43
2023-02-23T22:28:37.685Z,4.00
2023-02-23T22:31:16.178Z,3.63
2023-02-23T22:33:44.110Z,3.38
2023-02-23T22:36:20.106Z,3.47
2023-02-23T22:38:53.238Z,3.70
2023-02-23T22:41:26.184Z,3.78
2023-02-23T22:43:52.924Z,2.55
2023-02-23T22:46:19.685Z,3.15
2023-02-23T22:48:53.138Z,3.70
2023-02-23T22:51:20.607Z,3.22
2023-02-23T22:53:54.110Z,3.08
2023-02-23T22:56:20.833Z,3.65
2023-02-23T22:58:56.178Z,3.40
2023-02-23T23:01:26.593Z,3.90
2023-02-23T23:04:00.479Z,3.75
2023-02-23T23:06:27.474Z,3.53
2023-02-23T23:08:56.769Z,2.83
2023-02-23T23:11:33.188Z,2.50
2023-02-23T23:14:13.180Z,2.10
2023-02-23T23:16:54.229Z,2.55
2023-02-23T23:19:31.314Z,2.70
2023-02-23T23:22:00.483Z,2.20
2023-02-23T23:24:27.441Z,2.30
2023-02-23T23:27:02.216Z,3.15
2023-02-23T23:29:32.503Z,3.00
2023-02-23T23:32:11.320Z,3.42
2023-02-23T23:34:44.219Z,3.28
2023-02-23T23:37:17.200Z,3.20
2023-02-23T23:39:44.587Z,3.78
2023-02-23T23:42:22.390Z,2.92
2023-02-23T23:44:49.123Z,3.60
2023-02-23T23:47:15.879Z,3.00
2023-02-23T23:49:49.269Z,2.70
2023-02-23T23:52:24.228Z,3.33
2023-02-23T23:54:58.202Z,3.00
2023-02-23T23:57:30.917Z,3.60
